createdAt,value
2018-07-26T00:01:34.053Z,97854.20
2018-07-26T00:04:03.059Z,97856.52
2018-07-26T00:06:31.946Z,97855.71
2018-07-26T00:09:00.649Z,97858.47
2018-07-26T00:11:29.466Z,97862.02
2018-07-26T00:13:58.223Z,97861.03
2018-07-26T00:16:27.095Z,97861.41
2018-07-26T00:18:55.896Z,97853.55
2018-07-26T00:21:24.820Z,97856.05
2018-07-26T00:23:53.645Z,97850.73
2018-07-26T00:26:22.658Z,97851.72
2018-07-26T00:28:51.519Z,97853.28
2018-07-26T00:31:20.317Z,97845.17
2018-07-26T00:33:49.231Z,97849.09
2018-07-26T00:36:18.146Z,97843.98
2018-07-26T00:38:46.901Z,97848.99
2018-07-26T00:41:15.812Z,97845.45
2018-07-26T00:43:44.912Z,97852.28
2018-07-26T00:46:13.747Z,97855.41
2018-07-26T00:48:42.667Z,97858.73
2018-07-26T00:51:11.419Z,97862.21
2018-07-26T00:53:40.199Z,97858.09
2018-07-26T00:56:09.133Z,97856.64
2018-07-26T00:58:37.783Z,97850.08
2018-07-26T01:01:06.536Z,97853.53
2018-07-26T01:03:35.441Z,97860.20
2018-07-26T01:06:04.379Z,97857.86
2018-07-26T01:08:33.125Z,97861.48
2018-07-26T01:11:02.031Z,97855.61
2018-07-26T01:13:31.153Z,97866.78
2018-07-26T01:16:00.388Z,97860.91
2018-07-26T01:18:29.145Z,97862.08
2018-07-26T01:20:57.968Z,97861.89
2018-07-26T01:23:26.889Z,97868.03
2018-07-26T01:25:55.781Z,97869.41
2018-07-26T01:28:24.580Z,97870.02
2018-07-26T01:30:53.393Z,97872.62
2018-07-26T01:33:22.189Z,97865.56
2018-07-26T01:35:51.045Z,97874.02
2018-07-26T01:38:19.834Z,97864.12
2018-07-26T01:40:48.589Z,97859.59
2018-07-26T01:43:56.804Z,97867.63
2018-07-26T01:46:26.680Z,97868.23
2018-07-26T01:48:55.615Z,97863.71
2018-07-26T01:51:24.511Z,97866.25
2018-07-26T01:53:53.156Z,97869.14
2018-07-26T01:56:21.865Z,97861.66
2018-07-26T01:58:50.687Z,97860.09
2018-07-26T02:01:19.604Z,97859.50
2018-07-26T02:03:48.342Z,97857.93
2018-07-26T02:06:17.539Z,97861.81
2018-07-26T02:08:46.342Z,97860.13
2018-07-26T02:11:15.136Z,97861.67
2018-07-26T02:13:43.983Z,97860.33
2018-07-26T02:16:12.890Z,97856.70
2018-07-26T02:18:42.057Z,97867.64
2018-07-26T02:21:10.853Z,97863.91
2018-07-26T02:23:40.221Z,97865.07
2018-07-26T02:26:09.406Z,97868.16
2018-07-26T02:28:38.320Z,97863.47
2018-07-26T02:31:07.665Z,97863.02
2018-07-26T02:33:36.782Z,97859.05
2018-07-26T02:36:05.662Z,97863.54
2018-07-26T02:38:34.372Z,97865.39
2018-07-26T02:41:03.139Z,97864.78
2018-07-26T02:43:32.074Z,97863.78
2018-07-26T02:46:01.021Z,97865.19
2018-07-26T02:48:29.839Z,97859.66
2018-07-26T02:50:58.716Z,97862.78
2018-07-26T02:53:27.719Z,97863.09
2018-07-26T02:55:57.650Z,97871.21
2018-07-26T02:58:26.587Z,97878.26
2018-07-26T03:00:55.413Z,97882.95
2018-07-26T03:03:24.177Z,97879.08
2018-07-26T03:05:53.178Z,97877.95
2018-07-26T03:08:22.166Z,97879.70
2018-07-26T03:10:50.976Z,97882.25
2018-07-26T03:13:19.741Z,97881.69
2018-07-26T03:15:48.859Z,97884.22
2018-07-26T03:18:17.645Z,97880.20
2018-07-26T03:20:46.570Z,97878.48
2018-07-26T03:23:15.522Z,97879.16
2018-07-26T03:25:44.609Z,97883.47
2018-07-26T03:28:13.836Z,97881.98
2018-07-26T03:30:42.712Z,97882.39
2018-07-26T03:33:11.494Z,97885.22
2018-07-26T03:35:40.489Z,97888.99
2018-07-26T03:38:09.311Z,97887.51
2018-07-26T03:40:38.143Z,97891.04
2018-07-26T03:43:06.832Z,97889.37
2018-07-26T03:45:35.750Z,97887.84
2018-07-26T03:48:04.566Z,97889.66
2018-07-26T03:50:33.436Z,97891.61
2018-07-26T03:53:02.251Z,97894.86
2018-07-26T03:55:31.029Z,97890.63
2018-07-26T03:57:59.817Z,97893.16
2018-07-26T04:00:28.851Z,97890.36
2018-07-26T04:02:57.668Z,97890.70
2018-07-26T04:05:26.483Z,97886.42
2018-07-26T04:07:55.481Z,97893.86
2018-07-26T04:10:24.472Z,97892.65
2018-07-26T04:12:53.717Z,97891.66
2018-07-26T04:15:22.525Z,97895.05
2018-07-26T04:17:56.356Z,97890.83
2018-07-26T04:20:25.346Z,97892.20
2018-07-26T04:22:54.360Z,97892.99
2018-07-26T04:25:23.741Z,97899.05
2018-07-26T04:27:52.885Z,97899.18
2018-07-26T04:30:21.706Z,97900.54
2018-07-26T04:32:50.609Z,97899.42
2018-07-26T04:35:19.772Z,97899.57
2018-07-26T04:37:48.487Z,97901.84
2018-07-26T04:40:17.545Z,97900.48
2018-07-26T04:42:46.427Z,97896.78
2018-07-26T04:45:15.451Z,97902.75
2018-07-26T04:47:44.434Z,97898.80
2018-07-26T04:50:14.060Z,97900.42
2018-07-26T04:52:43.424Z,97905.10
2018-07-26T04:55:12.227Z,97906.47
2018-07-26T04:57:41.067Z,97906.89
2018-07-26T05:00:10.081Z,97907.73
2018-07-26T05:02:39.133Z,97913.91
2018-07-26T05:05:08.766Z,97913.84
2018-07-26T05:07:37.942Z,97912.36
2018-07-26T05:10:07.020Z,97915.55
2018-07-26T05:12:36.366Z,97919.98
2018-07-26T05:15:06.924Z,97917.84
2018-07-26T05:17:35.681Z,97916.00
2018-07-26T05:20:05.422Z,97919.53
2018-07-26T05:22:34.226Z,97915.78
2018-07-26T05:25:03.276Z,97922.23
2018-07-26T05:27:32.350Z,97929.68
2018-07-26T05:30:01.192Z,97925.56
2018-07-26T05:32:30.228Z,97930.13
2018-07-26T05:34:59.449Z,97934.75
2018-07-26T05:37:28.566Z,97936.04
2018-07-26T05:39:57.391Z,97934.78
2018-07-26T05:42:26.464Z,97930.05
2018-07-26T05:44:56.079Z,97934.14
2018-07-26T05:47:25.266Z,97933.67
2018-07-26T05:49:54.384Z,97931.80
2018-07-26T05:52:23.157Z,97926.22
2018-07-26T05:54:52.050Z,97932.19
2018-07-26T05:57:20.945Z,97932.67
2018-07-26T05:59:49.759Z,97929.46
2018-07-26T06:02:18.645Z,97931.12
2018-07-26T06:04:47.577Z,97933.34
2018-07-26T06:07:16.532Z,97930.31
2018-07-26T06:09:45.568Z,97932.18
2018-07-26T06:12:14.489Z,97937.03
2018-07-26T06:14:43.275Z,97941.64
2018-07-26T06:17:12.068Z,97940.83
2018-07-26T06:19:40.873Z,97946.53
2018-07-26T06:22:09.708Z,97947.80
2018-07-26T06:24:38.683Z,97951.06
2018-07-26T06:27:07.661Z,97948.78
2018-07-26T06:29:36.413Z,97943.74
2018-07-26T06:32:05.388Z,97943.40
2018-07-26T06:34:34.616Z,97941.05
2018-07-26T06:37:03.568Z,97936.13
2018-07-26T06:39:32.633Z,97945.23
2018-07-26T06:42:01.547Z,97945.47
2018-07-26T06:44:30.370Z,97946.12
2018-07-26T06:46:59.436Z,97947.53
2018-07-26T06:49:28.369Z,97943.84
2018-07-26T06:51:57.234Z,97947.45
2018-07-26T06:54:26.036Z,97946.83
2018-07-26T06:56:54.797Z,97948.91
2018-07-26T06:59:23.649Z,97951.89
2018-07-26T07:01:52.542Z,97958.64
2018-07-26T07:04:21.727Z,97952.80
2018-07-26T07:06:50.507Z,97951.02
2018-07-26T07:09:19.431Z,97951.23
2018-07-26T07:11:48.269Z,97952.28
2018-07-26T07:14:17.387Z,97947.00
2018-07-26T07:16:46.158Z,97947.20
2018-07-26T07:19:15.058Z,97943.45
2018-07-26T07:21:43.833Z,97951.35
2018-07-26T07:24:16.912Z,97945.45
2018-07-26T07:26:45.862Z,97943.66
2018-07-26T07:29:14.590Z,97939.32
2018-07-26T07:31:43.475Z,97941.91
2018-07-26T07:34:12.280Z,97941.91
2018-07-26T07:36:41.185Z,97939.33
2018-07-26T07:39:12.012Z,97945.20
2018-07-26T07:41:41.280Z,97942.44
2018-07-26T07:44:10.493Z,97941.25
2018-07-26T07:46:40.287Z,97937.48
2018-07-26T07:49:08.918Z,97939.83
2018-07-26T07:51:37.743Z,97939.43
2018-07-26T07:54:06.586Z,97937.44
2018-07-26T07:56:35.390Z,97934.83
2018-07-26T07:59:04.452Z,97939.48
2018-07-26T08:01:33.371Z,97929.81
2018-07-26T08:04:02.300Z,97931.72
2018-07-26T08:06:31.247Z,97932.84
2018-07-26T08:09:00.117Z,97932.20
2018-07-26T08:11:28.962Z,97928.05
2018-07-26T08:13:58.053Z,97933.12
2018-07-26T08:16:26.978Z,97929.93
2018-07-26T08:18:55.835Z,97931.09
2018-07-26T08:21:25.012Z,97929.45
2018-07-26T08:23:53.902Z,97929.17
2018-07-26T08:26:22.854Z,97924.84
2018-07-26T08:28:51.713Z,97924.38
2018-07-26T08:31:20.494Z,97929.96
2018-07-26T08:33:49.257Z,97927.49
2018-07-26T08:36:18.478Z,97923.20
2018-07-26T08:38:47.370Z,97925.42
2018-07-26T08:41:16.142Z,97922.12
2018-07-26T08:43:44.971Z,97929.09
2018-07-26T08:46:13.718Z,97921.03
2018-07-26T08:48:42.652Z,97917.27
2018-07-26T08:51:11.525Z,97922.92
2018-07-26T08:53:40.501Z,97926.17
2018-07-26T08:56:09.401Z,97923.67
2018-07-26T08:58:38.245Z,97924.86
2018-07-26T09:01:07.003Z,97927.19
2018-07-26T09:03:36.185Z,97926.61
2018-07-26T09:06:04.997Z,97923.66
2018-07-26T09:08:33.733Z,97928.79
2018-07-26T09:11:02.620Z,97923.66
2018-07-26T09:13:31.495Z,97925.42
2018-07-26T09:16:00.270Z,97929.13
2018-07-26T09:18:29.131Z,97924.33
2018-07-26T09:20:58.062Z,97915.83
2018-07-26T09:23:27.209Z,97924.36
2018-07-26T09:25:56.201Z,97912.75
2018-07-26T09:28:25.127Z,97919.48
2018-07-26T09:30:53.958Z,97924.59
2018-07-26T09:33:23.213Z,97925.50
2018-07-26T09:35:52.082Z,97919.41
2018-07-26T09:38:20.913Z,97919.61
2018-07-26T09:40:49.638Z,97924.27
2018-07-26T09:43:18.794Z,97914.48
2018-07-26T09:45:48.220Z,97913.09
2018-07-26T09:48:17.287Z,97909.33
2018-07-26T09:50:47.841Z,97906.05
2018-07-26T09:53:17.006Z,97913.88
2018-07-26T09:55:46.093Z,97908.02
2018-07-26T09:58:15.089Z,97904.44
2018-07-26T10:00:49.208Z,97897.75
2018-07-26T10:03:18.106Z,97903.66
2018-07-26T10:05:46.950Z,97896.41
2018-07-26T10:08:15.747Z,97891.05
2018-07-26T10:10:45.309Z,97885.31
2018-07-26T10:13:14.055Z,97892.91
2018-07-26T10:15:42.918Z,97891.44
2018-07-26T10:18:11.912Z,97892.52
2018-07-26T10:20:40.838Z,97896.87
2018-07-26T10:23:09.805Z,97895.00
2018-07-26T10:25:38.918Z,97888.22
2018-07-26T10:28:08.134Z,97883.14
2018-07-26T10:30:36.885Z,97887.66
2018-07-26T10:33:05.799Z,97882.64
2018-07-26T10:35:34.699Z,97872.80
2018-07-26T10:38:03.705Z,97878.19
2018-07-26T10:40:32.773Z,97878.64
2018-07-26T10:43:01.618Z,97876.97
2018-07-26T10:45:31.368Z,97878.92
2018-07-26T10:48:00.042Z,97873.26
2018-07-26T10:50:29.049Z,97869.19
2018-07-26T10:52:57.829Z,97874.05
2018-07-26T10:55:26.641Z,97868.33
2018-07-26T10:57:55.858Z,97866.69
2018-07-26T11:00:24.739Z,97861.09
2018-07-26T11:02:53.519Z,97863.44
2018-07-26T11:05:22.322Z,97862.95
2018-07-26T11:07:51.026Z,97857.97
2018-07-26T11:10:20.170Z,97862.22
2018-07-26T11:12:49.360Z,97852.88
2018-07-26T11:15:27.800Z,97858.72
2018-07-26T11:17:56.943Z,97855.70
2018-07-26T11:20:26.030Z,97857.53
2018-07-26T11:22:54.952Z,97859.09
2018-07-26T11:25:23.711Z,97854.62
2018-07-26T11:27:53.166Z,97845.40
2018-07-26T11:30:23.305Z,97852.92
2018-07-26T11:32:52.216Z,97846.95
2018-07-26T11:35:21.118Z,97846.37
2018-07-26T11:37:50.028Z,97843.92
2018-07-26T11:40:18.909Z,97840.63
2018-07-26T11:42:48.286Z,97843.59
2018-07-26T11:45:17.274Z,97840.46
2018-07-26T11:47:46.372Z,97840.46
2018-07-26T11:50:15.371Z,97836.54
2018-07-26T11:52:44.198Z,97832.14
2018-07-26T11:55:13.236Z,97826.75
2018-07-26T11:57:42.187Z,97825.59
2018-07-26T12:00:11.162Z,97835.73
2018-07-26T12:02:40.051Z,97824.20
2018-07-26T12:05:08.794Z,97822.41
2018-07-26T12:07:37.722Z,97826.07
2018-07-26T12:10:06.982Z,97816.42
2018-07-26T12:12:35.794Z,97805.61
2018-07-26T12:15:05.104Z,97806.63
2018-07-26T12:17:34.058Z,97809.86
2018-07-26T12:20:03.037Z,97812.23
2018-07-26T12:22:31.840Z,97814.79
2018-07-26T12:25:00.717Z,97803.55
2018-07-26T12:27:29.784Z,97796.50
2018-07-26T12:29:58.863Z,97799.78
2018-07-26T12:32:27.665Z,97794.02
2018-07-26T12:34:56.530Z,97797.67
2018-07-26T12:37:25.327Z,97795.80
2018-07-26T12:39:54.237Z,97788.11
2018-07-26T12:42:23.139Z,97793.59
2018-07-26T12:44:52.020Z,97787.00
2018-07-26T12:47:20.985Z,97772.19
2018-07-26T12:49:50.491Z,97768.21
2018-07-26T12:52:20.846Z,97767.45
2018-07-26T12:54:50.335Z,97759.27
2018-07-26T12:57:19.418Z,97757.48
2018-07-26T12:59:48.232Z,97753.29
2018-07-26T13:02:17.017Z,97741.75
2018-07-26T13:04:46.081Z,97746.97
2018-07-26T13:07:14.981Z,97746.02
2018-07-26T13:09:44.172Z,97739.03
2018-07-26T13:12:13.224Z,97743.73
2018-07-26T13:14:42.123Z,97742.63
2018-07-26T13:17:10.940Z,97740.64
2018-07-26T13:19:39.902Z,97735.98
2018-07-26T13:22:08.635Z,97734.45
2018-07-26T13:24:37.363Z,97727.25
2018-07-26T13:27:07.013Z,97733.56
2018-07-26T13:29:35.925Z,97733.75
2018-07-26T13:32:04.923Z,97730.78
2018-07-26T13:34:33.806Z,97731.61
2018-07-26T13:37:02.538Z,97731.63
2018-07-26T13:39:31.426Z,97729.41
2018-07-26T13:42:00.606Z,97732.94
2018-07-26T13:44:29.616Z,97732.44
2018-07-26T13:46:58.494Z,97721.99
2018-07-26T13:49:27.260Z,97722.80
2018-07-26T13:51:56.170Z,97725.98
2018-07-26T13:54:24.947Z,97709.91
2018-07-26T13:56:53.769Z,97718.09
2018-07-26T13:59:22.749Z,97710.47
2018-07-26T14:01:51.822Z,97706.27
2018-07-26T14:04:20.744Z,97695.67
2018-07-26T14:06:49.649Z,97703.38
2018-07-26T14:09:18.630Z,97689.31
2018-07-26T14:11:47.477Z,97692.39
2018-07-26T14:14:16.275Z,97692.33
2018-07-26T14:16:45.329Z,97693.52
2018-07-26T14:19:14.416Z,97693.45
2018-07-26T14:21:43.269Z,97690.02
2018-07-26T14:24:17.357Z,97690.11
2018-07-26T14:26:46.557Z,97687.17
2018-07-26T14:29:15.401Z,97688.27
2018-07-26T14:31:44.572Z,97688.78
2018-07-26T14:34:15.285Z,97691.69
2018-07-26T14:36:45.114Z,97686.05
2018-07-26T14:39:14.014Z,97681.66
2018-07-26T14:41:43.152Z,97680.23
2018-07-26T14:44:12.169Z,97676.81
2018-07-26T14:46:40.967Z,97675.52
2018-07-26T14:49:10.199Z,97669.66
2018-07-26T14:51:39.169Z,97670.91
2018-07-26T14:54:08.475Z,97675.44
2018-07-26T14:56:37.811Z,97665.58
2018-07-26T14:59:06.627Z,97673.11
2018-07-26T15:01:35.505Z,97670.67
2018-07-26T15:04:04.637Z,97658.99
2018-07-26T15:06:33.453Z,97669.91
2018-07-26T15:09:02.400Z,97670.69
2018-07-26T15:11:31.280Z,97668.02
2018-07-26T15:14:00.178Z,97664.99
2018-07-26T15:16:29.019Z,97668.08
2018-07-26T15:18:57.937Z,97674.56
2018-07-26T15:21:26.759Z,97669.03
2018-07-26T15:23:55.670Z,97672.66
2018-07-26T15:26:24.406Z,97666.21
2018-07-26T15:28:53.261Z,97656.14
2018-07-26T15:31:22.027Z,97657.22
2018-07-26T15:33:50.949Z,97658.33
2018-07-26T15:36:19.701Z,97654.95
2018-07-26T15:38:48.472Z,97658.77
2018-07-26T15:41:17.298Z,97670.03
2018-07-26T15:43:46.730Z,97658.02
2018-07-26T15:46:15.429Z,97655.08
2018-07-26T15:48:44.234Z,97653.11
2018-07-26T15:51:13.048Z,97649.62
2018-07-26T15:53:42.466Z,97650.30
2018-07-26T15:56:11.658Z,97643.53
2018-07-26T15:58:40.524Z,97644.58
2018-07-26T16:01:09.508Z,97649.05
2018-07-26T16:03:38.353Z,97652.00
2018-07-26T16:06:07.252Z,97648.58
2018-07-26T16:08:36.126Z,97648.42
2018-07-26T16:11:05.154Z,97644.91
2018-07-26T16:13:33.908Z,97648.70
2018-07-26T16:16:02.821Z,97644.80
2018-07-26T16:18:31.597Z,97642.27
2018-07-26T16:21:00.507Z,97643.94
2018-07-26T16:23:29.367Z,97644.24
2018-07-26T16:25:58.364Z,97640.22
2018-07-26T16:28:27.370Z,97643.38
2018-07-26T16:30:56.396Z,97636.70
2018-07-26T16:33:25.584Z,97638.22
2018-07-26T16:35:54.561Z,97634.65
2018-07-26T16:38:23.652Z,97633.87
2018-07-26T16:40:52.903Z,97636.36
2018-07-26T16:43:21.663Z,97631.17
2018-07-26T16:45:50.538Z,97634.53
2018-07-26T16:48:19.662Z,97633.88
2018-07-26T16:50:48.469Z,97616.25
2018-07-26T16:53:17.459Z,97631.98
2018-07-26T16:55:46.344Z,97637.72
2018-07-26T16:58:15.360Z,97641.78
2018-07-26T17:00:44.854Z,97649.38
2018-07-26T17:03:13.800Z,97649.70
2018-07-26T17:05:42.825Z,97646.37
2018-07-26T17:08:12.074Z,97645.83
2018-07-26T17:10:40.920Z,97641.33
2018-07-26T17:13:09.895Z,97644.10
2018-07-26T17:15:38.704Z,97645.09
2018-07-26T17:18:07.509Z,97641.03
2018-07-26T17:20:36.343Z,97646.77
2018-07-26T17:23:05.356Z,97642.05
2018-07-26T17:25:34.456Z,97644.68
2018-07-26T17:28:03.267Z,97645.19
2018-07-26T17:30:31.972Z,97637.70
2018-07-26T17:33:00.842Z,97638.06
2018-07-26T17:35:29.813Z,97634.66
2018-07-26T17:37:58.830Z,97644.36
2018-07-26T17:40:27.649Z,97644.11
2018-07-26T17:42:56.475Z,97641.00
2018-07-26T17:45:25.426Z,97647.23
2018-07-26T17:47:54.656Z,97635.69
2018-07-26T17:50:23.483Z,97646.29
2018-07-26T17:52:52.458Z,97641.70
2018-07-26T17:55:21.550Z,97644.36
2018-07-26T17:57:50.487Z,97647.47
2018-07-26T18:00:19.351Z,97649.33
2018-07-26T18:02:48.377Z,97646.91
2018-07-26T18:05:17.352Z,97644.75
2018-07-26T18:07:47.007Z,97654.36
2018-07-26T18:10:15.819Z,97650.27
2018-07-26T18:12:44.810Z,97651.85
2018-07-26T18:15:13.705Z,97646.37
2018-07-26T18:17:42.582Z,97657.83
2018-07-26T18:20:11.427Z,97653.95
2018-07-26T18:22:40.302Z,97656.38
2018-07-26T18:25:09.332Z,97662.06
2018-07-26T18:27:38.358Z,97665.81
2018-07-26T18:30:08.613Z,97665.61
2018-07-26T18:32:37.441Z,97660.42
2018-07-26T18:35:06.676Z,97667.84
2018-07-26T18:37:35.623Z,97671.64
2018-07-26T18:40:05.010Z,97675.23
2018-07-26T18:42:33.914Z,97673.19
2018-07-26T18:45:02.786Z,97675.83
2018-07-26T18:47:32.025Z,97679.84
2018-07-26T18:50:00.871Z,97681.48
2018-07-26T18:52:30.262Z,97683.31
2018-07-26T18:54:58.927Z,97684.44
2018-07-26T18:57:27.766Z,97686.09
2018-07-26T18:59:56.761Z,97679.10
2018-07-26T19:02:25.595Z,97692.28
2018-07-26T19:04:54.569Z,97691.66
2018-07-26T19:07:24.991Z,97695.45
2018-07-26T19:09:54.043Z,97699.95
2018-07-26T19:12:23.067Z,97703.66
2018-07-26T19:14:52.065Z,97706.93
2018-07-26T19:17:20.922Z,97706.06
2018-07-26T19:19:49.766Z,97708.55
2018-07-26T19:22:19.203Z,97710.48
2018-07-26T19:24:48.157Z,97717.66
2018-07-26T19:27:16.882Z,97721.55
2018-07-26T19:29:45.660Z,97721.86
2018-07-26T19:32:14.687Z,97728.34
2018-07-26T19:34:43.487Z,97732.15
2018-07-26T19:37:12.369Z,97733.36
2018-07-26T19:39:41.184Z,97733.84
2018-07-26T19:42:10.193Z,97729.20
2018-07-26T19:44:38.897Z,97734.05
2018-07-26T19:47:07.895Z,97732.10
2018-07-26T19:49:37.119Z,97732.58
2018-07-26T19:52:06.104Z,97743.83
2018-07-26T19:54:35.044Z,97742.63
2018-07-26T19:57:03.785Z,97745.66
2018-07-26T19:59:32.614Z,97740.76
2018-07-26T20:02:01.660Z,97739.98
2018-07-26T20:04:30.623Z,97740.05
2018-07-26T20:06:59.436Z,97742.08
2018-07-26T20:09:28.372Z,97750.30
2018-07-26T20:11:57.315Z,97754.50
2018-07-26T20:14:26.049Z,97743.05
2018-07-26T20:16:54.888Z,97742.70
2018-07-26T20:19:23.886Z,97750.45
2018-07-26T20:21:52.913Z,97749.56
2018-07-26T20:24:21.835Z,97751.41
2018-07-26T20:26:50.661Z,97751.59
2018-07-26T20:29:19.485Z,97749.78
2018-07-26T20:31:48.379Z,97748.89
2018-07-26T20:34:17.294Z,97750.91
2018-07-26T20:36:46.118Z,97749.09
2018-07-26T20:39:15.547Z,97750.80
2018-07-26T20:41:44.276Z,97749.59
2018-07-26T20:44:13.375Z,97753.19
2018-07-26T20:46:42.469Z,97752.29
2018-07-26T20:49:11.194Z,97752.29
2018-07-26T20:51:40.087Z,97761.21
2018-07-26T20:54:09.169Z,97755.66
2018-07-26T20:56:37.950Z,97756.12
2018-07-26T20:59:06.798Z,97756.73
2018-07-26T21:01:35.561Z,97755.05
2018-07-26T21:04:04.804Z,97755.69
2018-07-26T21:06:33.489Z,97756.92
2018-07-26T21:09:02.349Z,97758.00
2018-07-26T21:11:31.264Z,97754.75
2018-07-26T21:14:00.294Z,97754.20
2018-07-26T21:16:29.586Z,97757.25
2018-07-26T21:18:58.420Z,97758.27
2018-07-26T21:21:27.144Z,97762.09
2018-07-26T21:23:56.437Z,97760.16
2018-07-26T21:26:25.293Z,97761.30
2018-07-26T21:28:54.153Z,97765.52
2018-07-26T21:31:23.166Z,97769.13
2018-07-26T21:33:52.181Z,97765.39
2018-07-26T21:36:21.394Z,97760.47
2018-07-26T21:38:50.456Z,97766.88
2018-07-26T21:41:19.375Z,97771.86
2018-07-26T21:43:48.463Z,97764.95
2018-07-26T21:46:17.595Z,97776.71
2018-07-26T21:48:46.700Z,97782.30
2018-07-26T21:51:15.487Z,97784.28
2018-07-26T21:53:44.263Z,97783.91
2018-07-26T21:56:13.275Z,97784.34
2018-07-26T21:58:42.147Z,97780.38
2018-07-26T22:01:11.288Z,97783.22
2018-07-26T22:03:40.212Z,97784.83
2018-07-26T22:06:09.016Z,97789.58
2018-07-26T22:08:37.823Z,97793.55
2018-07-26T22:11:06.680Z,97791.38
2018-07-26T22:13:35.511Z,97793.56
2018-07-26T22:16:04.644Z,97796.77
2018-07-26T22:18:33.522Z,97799.17
2018-07-26T22:21:02.290Z,97797.79
2018-07-26T22:23:31.372Z,97806.09
2018-07-26T22:26:00.166Z,97803.34
2018-07-26T22:28:28.886Z,97805.18
2018-07-26T22:30:57.748Z,97802.23
2018-07-26T22:33:26.499Z,97795.93
2018-07-26T22:35:55.345Z,97796.76
2018-07-26T22:38:24.139Z,97798.37
2018-07-26T22:40:52.958Z,97789.34
2018-07-26T22:43:22.259Z,97804.00
2018-07-26T22:45:51.456Z,97800.30
2018-07-26T22:48:20.300Z,97794.00
2018-07-26T22:50:49.306Z,97791.09
2018-07-26T22:53:18.204Z,97795.43
2018-07-26T22:55:47.497Z,97786.61
2018-07-26T22:58:16.237Z,97788.81
2018-07-26T23:00:45.142Z,97788.44
2018-07-26T23:03:14.030Z,97783.95
2018-07-26T23:05:42.852Z,97782.54
2018-07-26T23:08:12.115Z,97779.84
2018-07-26T23:10:40.797Z,97789.54
2018-07-26T23:13:09.761Z,97786.40
2018-07-26T23:15:38.594Z,97787.61
2018-07-26T23:18:07.460Z,97785.48
2018-07-26T23:20:36.269Z,97777.38
2018-07-26T23:23:05.027Z,97781.51
2018-07-26T23:25:33.841Z,97783.52
2018-07-26T23:28:02.646Z,97775.03
2018-07-26T23:30:31.541Z,97781.77
2018-07-26T23:33:00.398Z,97776.63
2018-07-26T23:35:29.319Z,97781.77
2018-07-26T23:37:58.354Z,97786.52
2018-07-26T23:40:27.215Z,97784.55
2018-07-26T23:42:55.917Z,97784.97
2018-07-26T23:45:24.645Z,97784.97
2018-07-26T23:47:53.359Z,97788.52
2018-07-26T23:50:22.305Z,97786.37
2018-07-26T23:52:51.254Z,97781.45
2018-07-26T23:55:19.984Z,97781.82
2018-07-26T23:57:48.741Z,97782.99
